Time;durP1;ratioP1;P1;durP2;ratioP2;P2;SDS_P1;SDS_P2;PMS_P1;PMS_P2;Temp;Humidity;BMP_temperature;BMP_pressure;BME280_temperature;BME280_humidity;BME280_pressure;Samples;Min_cycle;Max_cycle;Signal;HPM_P1;HPM_P2
2022/02/18 00:01:59;;;;;;;2.77;1.30;;;7.30;1.00;;;;;;5105507;28;20231;-67
2022/02/18 00:04:25;;;;;;;1.50;0.83;;;7.30;1.00;;;;;;5080203;28;20819;-68
2022/02/18 00:06:51;;;;;;;0.80;0.80;;;7.30;1.00;;;;;;5109313;28;20943;-68
2022/02/18 00:09:17;;;;;;;4.70;1.50;;;;;;;;;;5108025;28;20717;-68
2022/02/18 00:11:42;;;;;;;2.00;0.90;;;7.30;1.00;;;;;;5106260;28;20270;-67
2022/02/18 00:14:08;;;;;;;2.23;0.87;;;7.30;1.00;;;;;;5107773;28;20932;-68
2022/02/18 00:16:33;;;;;;;2.83;0.90;;;7.40;1.00;;;;;;5092420;28;20178;-67
2022/02/18 00:18:59;;;;;;;5.50;0.70;;;7.40;1.00;;;;;;5101039;28;20253;-67
2022/02/18 00:21:24;;;;;;;3.90;1.10;;;7.40;1.00;;;;;;5098521;28;20183;-66
2022/02/18 00:23:50;;;;;;;2.77;1.07;;;7.30;1.00;;;;;;5102832;28;20190;-67
2022/02/18 00:26:15;;;;;;;4.07;1.10;;;7.40;1.00;;;;;;5105701;28;20225;-66
2022/02/18 00:28:45;;;;;;;3.50;1.10;;;7.30;1.00;;;;;;5101276;28;20206;-67
2022/02/18 00:31:12;;;;;;;4.60;1.10;;;;;;;;;;5080580;28;20205;-67
2022/02/18 00:33:37;;;;;;;2.90;1.17;;;7.20;1.00;;;;;;5105717;28;20444;-67
2022/02/18 00:36:03;;;;;;;3.23;0.80;;;7.20;1.00;;;;;;5106921;28;20446;-67
2022/02/18 00:38:29;;;;;;;1.70;0.97;;;7.20;1.00;;;;;;5106789;28;20187;-66
2022/02/18 00:40:54;;;;;;;2.10;1.07;;;;;;;;;;5094552;28;20190;-67
2022/02/18 00:43:21;;;;;;;3.73;1.10;;;;;;;;;;5093765;28;20190;-68
2022/02/18 00:45:48;;;;;;;2.73;0.90;;;;;;;;;;5097437;28;20451;-67
2022/02/18 00:48:16;;;;;;;2.10;0.97;;;7.20;1.00;;;;;;5102404;28;20455;-65
2022/02/18 00:50:42;;;;;;;6.90;1.07;;;7.30;1.00;;;;;;5105555;28;20442;-67
2022/02/18 00:53:08;;;;;;;1.97;0.83;;;7.20;1.00;;;;;;5093321;28;20447;-67
2022/02/18 00:55:33;;;;;;;2.50;1.20;;;7.10;1.00;;;;;;5095401;28;20206;-66
2022/02/18 00:57:59;;;;;;;4.10;0.90;;;7.20;1.00;;;;;;5101882;28;20297;-67
2022/02/18 01:00:25;;;;;;;2.00;0.90;;;;;;;;;;5099231;28;20202;-67
2022/02/18 01:02:51;;;;;;;2.93;0.87;;;7.30;1.00;;;;;;5099089;28;20201;-66
2022/02/18 01:05:17;;;;;;;1.47;1.00;;;7.30;1.00;;;;;;5094055;28;22057;-66
2022/02/18 01:07:43;;;;;;;1.73;1.27;;;7.30;1.00;;;;;;5104524;28;20472;-67
2022/02/18 01:10:10;;;;;;;2.73;1.13;;;7.30;1.00;;;;;;5099956;28;20209;-66
2022/02/18 01:12:36;;;;;;;5.23;0.90;;;7.30;1.00;;;;;;5100534;28;20448;-67
2022/02/18 01:15:03;;;;;;;2.20;0.77;;;7.30;1.00;;;;;;5102911;28;20504;-67
2022/02/18 01:17:29;;;;;;;3.00;0.93;;;7.40;1.00;;;;;;5104953;28;20886;-67
2022/02/18 01:19:55;;;;;;;3.03;0.90;;;7.60;1.00;;;;;;5097769;28;20513;-67
2022/02/18 01:22:20;;;;;;;3.07;1.13;;;7.40;1.00;;;;;;5097633;28;20178;-69
2022/02/18 01:24:46;;;;;;;3.53;1.27;;;7.50;1.00;;;;;;5103640;28;20452;-68
2022/02/18 01:27:12;;;;;;;4.13;0.70;;;7.60;1.00;;;;;;5093999;28;20190;-67
2022/02/18 01:29:39;;;;;;;1.53;1.20;;;;;;;;;;5107540;28;20573;-67
2022/02/18 01:32:13;;;;;;;4.70;1.00;;;7.60;1.00;;;;;;5103046;28;20205;-67
2022/02/18 01:34:40;;;;;;;6.47;0.80;;;7.60;1.00;;;;;;5101515;28;20918;-68
2022/02/18 01:37:06;;;;;;;3.87;0.67;;;7.60;1.00;;;;;;5106670;28;20415;-67
2022/02/18 01:39:32;;;;;;;2.63;0.90;;;7.60;1.00;;;;;;5105247;28;20421;-66
2022/02/18 01:41:58;;;;;;;2.70;0.83;;;7.70;1.00;;;;;;5093308;28;20187;-67
2022/02/18 01:44:39;;;;;;;2.03;0.80;;;7.70;1.00;;;;;;5099885;28;20440;-68
2022/02/18 01:47:07;;;;;;;5.97;0.80;;;7.80;1.00;;;;;;5084963;28;20443;-68
2022/02/18 01:49:33;;;;;;;1.30;0.80;;;7.80;1.00;;;;;;5092800;28;20436;-66
2022/02/18 01:51:59;;;;;;;2.63;1.07;;;7.80;1.00;;;;;;5077451;28;20682;-67
2022/02/18 01:54:25;;;;;;;1.57;0.70;;;7.80;1.00;;;;;;5094514;28;20517;-67
2022/02/18 01:56:51;;;;;;;2.43;0.90;;;;;;;;;;5099623;28;20453;-67
2022/02/18 01:59:17;;;;;;;4.70;1.57;;;7.70;1.00;;;;;;5103720;28;20937;-67
2022/02/18 02:01:43;;;;;;;2.53;0.80;;;7.80;1.00;;;;;;5107863;28;20447;-67
2022/02/18 02:04:09;;;;;;;3.00;0.80;;;7.90;1.00;;;;;;5092054;28;20225;-68
2022/02/18 02:06:34;;;;;;;2.10;0.90;;;7.90;1.00;;;;;;5099859;28;20441;-67
2022/02/18 02:09:00;;;;;;;3.43;0.90;;;8.00;1.00;;;;;;5095348;28;20183;-67
2022/02/18 02:11:26;;;;;;;1.50;0.70;;;;;;;;;;5096937;28;20210;-66
2022/02/18 02:13:51;;;;;;;5.83;1.10;;;8.00;1.00;;;;;;5109825;28;20628;-65
2022/02/18 02:16:17;;;;;;;1.03;0.70;;;8.00;1.00;;;;;;5108357;28;20436;-67
2022/02/18 02:18:44;;;;;;;3.13;0.60;;;7.90;1.00;;;;;;5078943;28;20213;-66
2022/02/18 02:21:13;;;;;;;1.53;1.13;;;7.90;1.00;;;;;;5096818;28;20862;-67
2022/02/18 02:23:39;;;;;;;3.33;1.27;;;7.90;1.00;;;;;;5102619;28;20485;-68
2022/02/18 02:26:12;;;;;;;2.20;0.90;;;7.90;1.00;;;;;;5104134;28;20462;-68
2022/02/18 02:28:38;;;;;;;1.90;0.80;;;8.00;1.00;;;;;;5097475;28;20785;-68
2022/02/18 02:31:04;;;;;;;1.70;0.70;;;8.00;1.00;;;;;;5093977;28;20768;-68
2022/02/18 02:33:29;;;;;;;1.60;0.97;;;7.90;1.00;;;;;;5096051;28;20531;-67
2022/02/18 02:35:55;;;;;;;3.00;0.77;;;;;;;;;;5102914;28;20195;-67
2022/02/18 02:38:20;;;;;;;5.37;1.30;;;8.00;1.00;;;;;;5100225;28;20187;-66
2022/02/18 02:40:46;;;;;;;2.03;0.90;;;8.10;1.00;;;;;;5106419;28;20433;-67
2022/02/18 02:43:12;;;;;;;2.70;1.07;;;8.10;1.00;;;;;;5107132;28;20190;-66
2022/02/18 02:45:38;;;;;;;2.00;0.90;;;8.10;1.00;;;;;;5106049;28;20183;-67
2022/02/18 02:48:04;;;;;;;3.67;1.40;;;8.00;1.00;;;;;;5113452;28;20729;-66
2022/02/18 02:50:30;;;;;;;3.27;0.73;;;;;;;;;;5103731;28;20554;-67
2022/02/18 02:52:56;;;;;;;2.60;0.80;;;7.90;1.00;;;;;;5111657;28;20463;-66
2022/02/18 02:55:22;;;;;;;3.17;1.50;;;7.90;1.00;;;;;;5108374;28;20481;-66
2022/02/18 02:57:48;;;;;;;3.57;1.17;;;7.90;1.00;;;;;;5102190;28;20200;-68
2022/02/18 03:00:14;;;;;;;1.93;0.90;;;8.00;1.00;;;;;;5099665;28;20435;-67
2022/02/18 03:02:40;;;;;;;1.50;1.13;;;8.00;1.00;;;;;;5099359;28;20448;-68
2022/02/18 03:05:07;;;;;;;5.07;1.10;;;8.00;1.00;;;;;;5102380;28;20443;-67
2022/02/18 03:07:33;;;;;;;3.03;0.87;;;;;;;;;;5099941;28;20286;-69
2022/02/18 03:09:59;;;;;;;3.90;1.30;;;;;;;;;;5101998;28;20519;-68
2022/02/18 03:12:25;;;;;;;2.10;0.83;;;8.00;1.00;;;;;;5109359;28;20439;-67
2022/02/18 03:14:51;;;;;;;1.57;0.90;;;8.00;1.00;;;;;;5112890;28;20434;-67
2022/02/18 03:17:17;;;;;;;3.40;1.20;;;7.90;1.00;;;;;;5108282;28;20635;-67
2022/02/18 03:19:42;;;;;;;4.63;1.00;;;8.00;1.00;;;;;;5097721;28;20459;-68
2022/02/18 03:22:08;;;;;;;1.53;0.70;;;8.00;1.00;;;;;;5100515;28;20437;-67
2022/02/18 03:24:34;;;;;;;3.73;0.87;;;8.00;1.00;;;;;;5109821;28;20194;-67
2022/02/18 03:27:00;;;;;;;1.90;0.63;;;8.00;1.00;;;;;;5098717;28;20194;-67
2022/02/18 03:29:26;;;;;;;1.47;0.70;;;;;;;;;;5110406;28;20451;-67
2022/02/18 03:31:53;;;;;;;2.17;0.90;;;8.10;1.00;;;;;;5100921;28;20989;-67
2022/02/18 03:34:19;;;;;;;4.87;1.30;;;8.10;1.00;;;;;;5095839;28;21041;-67
2022/02/18 03:36:44;;;;;;;4.13;1.40;;;8.20;1.00;;;;;;5085279;28;20443;-68
2022/02/18 03:39:10;;;;;;;6.30;0.90;;;8.20;1.00;;;;;;5100214;28;20811;-67
2022/02/18 03:41:36;;;;;;;2.00;1.00;;;8.10;1.00;;;;;;5095965;28;20187;-67
2022/02/18 03:44:01;;;;;;;4.10;1.00;;;8.20;1.00;;;;;;5093244;28;20273;-68
2022/02/18 03:46:27;;;;;;;4.17;0.80;;;8.10;1.00;;;;;;5109185;28;20559;-69
2022/02/18 03:48:52;;;;;;;4.00;0.80;;;8.00;1.00;;;;;;5108451;28;20190;-67
2022/02/18 03:51:18;;;;;;;4.03;1.00;;;8.00;1.00;;;;;;5104685;28;20266;-67
2022/02/18 03:53:45;;;;;;;1.23;0.77;;;8.00;1.00;;;;;;5109007;28;20232;-67
2022/02/18 03:56:11;;;;;;;1.37;0.50;;;8.00;1.00;;;;;;5105553;28;20206;-66
2022/02/18 03:58:37;;;;;;;3.90;1.27;;;8.10;1.00;;;;;;5111470;28;20960;-69
2022/02/18 04:01:02;;;;;;;4.67;0.90;;;8.10;1.00;;;;;;5107640;28;20523;-67
2022/02/18 04:03:28;;;;;;;3.60;0.67;;;8.00;1.00;;;;;;5093742;28;20251;-67
2022/02/18 04:05:54;;;;;;;4.20;1.00;;;;;;;;;;5097162;28;20517;-67
2022/02/18 04:08:19;;;;;;;1.13;0.63;;;7.80;1.00;;;;;;5084574;28;20246;-67
2022/02/18 04:10:45;;;;;;;2.70;1.30;;;7.70;1.00;;;;;;5103752;28;20503;-68
2022/02/18 04:13:11;;;;;;;3.73;1.50;;;;;;;;;;5099689;28;20186;-67
2022/02/18 04:15:37;;;;;;;5.83;1.63;;;;;;;;;;5098470;28;20174;-68
2022/02/18 04:18:02;;;;;;;4.87;1.07;;;7.50;1.00;;;;;;5106898;28;20429;-68
2022/02/18 04:20:28;;;;;;;2.10;1.00;;;7.30;1.00;;;;;;5095897;28;20975;-68
2022/02/18 04:22:54;;;;;;;4.73;1.20;;;7.20;1.00;;;;;;5104092;28;20194;-67
2022/02/18 04:25:19;;;;;;;2.47;0.90;;;7.20;1.00;;;;;;5109336;28;20213;-70
2022/02/18 04:28:00;;;;;;;5.80;1.37;;;7.20;1.00;;;;;;5088274;28;20660;-68
2022/02/18 04:30:26;;;;;;;3.33;1.30;;;7.20;1.00;;;;;;5078992;28;20218;-70
2022/02/18 04:32:52;;;;;;;1.53;1.20;;;;;;;;;;5106423;28;20423;-68
2022/02/18 04:35:18;;;;;;;1.80;1.27;;;7.00;1.00;;;;;;5107468;28;20444;-69
2022/02/18 04:37:44;;;;;;;3.90;1.03;;;7.20;1.00;;;;;;5094337;28;20805;-68
2022/02/18 04:40:10;;;;;;;5.63;1.30;;;7.10;1.00;;;;;;5105107;28;20415;-67
2022/02/18 04:42:37;;;;;;;2.33;1.40;;;7.10;1.00;;;;;;5107479;28;20196;-67
2022/02/18 04:45:03;;;;;;;3.57;1.37;;;7.20;1.00;;;;;;5101025;28;20440;-66
2022/02/18 04:47:28;;;;;;;1.20;0.90;;;7.30;1.00;;;;;;5109817;28;20954;-67
2022/02/18 04:49:54;;;;;;;8.03;1.77;;;;;;;;;;5102739;28;20194;-66
2022/02/18 04:52:20;;;;;;;3.20;1.50;;;7.40;1.00;;;;;;5101205;28;20224;-66
2022/02/18 04:54:45;;;;;;;3.30;1.43;;;7.50;1.00;;;;;;5100261;28;20447;-67
2022/02/18 04:57:11;;;;;;;3.40;1.50;;;;;;;;;;5092711;28;20655;-66
2022/02/18 04:59:37;;;;;;;3.90;1.50;;;7.70;1.00;;;;;;5108908;28;20202;-67
2022/02/18 05:02:04;;;;;;;5.10;1.30;;;7.90;1.00;;;;;;5107287;28;20451;-66
2022/02/18 05:04:29;;;;;;;4.47;1.37;;;8.00;1.00;;;;;;5099927;28;20795;-66
2022/02/18 05:06:55;;;;;;;3.37;1.00;;;8.00;1.00;;;;;;5102003;28;20459;-67
2022/02/18 05:09:21;;;;;;;3.40;1.40;;;8.10;1.00;;;;;;5098592;28;20209;-65
2022/02/18 05:11:46;;;;;;;3.70;0.90;;;8.10;1.00;;;;;;5108441;28;20541;-65
2022/02/18 05:14:12;;;;;;;5.20;1.10;;;;;;;;;;5104518;28;20257;-65
2022/02/18 05:16:38;;;;;;;5.13;1.50;;;8.10;1.00;;;;;;5104862;28;20179;-64
2022/02/18 05:19:06;;;;;;;2.17;1.30;;;8.10;1.00;;;;;;5094350;28;20408;-65
2022/02/18 05:21:32;;;;;;;4.97;1.63;;;8.10;1.00;;;;;;5100504;28;20208;-64
2022/02/18 05:23:57;;;;;;;6.93;1.40;;;8.10;1.00;;;;;;5108251;28;20501;-64
2022/02/18 05:26:23;;;;;;;5.20;1.13;;;;;;;;;;5098590;28;20190;-65
2022/02/18 05:28:49;;;;;;;5.10;1.33;;;8.30;1.00;;;;;;5107040;28;20190;-64
2022/02/18 05:31:14;;;;;;;4.20;1.40;;;8.20;1.00;;;;;;5084513;28;21204;-64
2022/02/18 05:33:40;;;;;;;5.13;1.07;;;8.30;1.00;;;;;;5101604;28;20532;-64
2022/02/18 05:36:05;;;;;;;2.37;1.10;;;8.30;1.00;;;;;;5084500;28;20220;-64
2022/02/18 05:38:31;;;;;;;2.63;1.60;;;;;;;;;;5098759;28;20179;-63
2022/02/18 05:40:57;;;;;;;3.50;1.23;;;8.20;1.00;;;;;;5103986;28;20194;-64
2022/02/18 05:43:22;;;;;;;4.13;1.30;;;8.30;1.00;;;;;;5101899;28;20994;-66
2022/02/18 05:45:48;;;;;;;3.40;1.10;;;;;;;;;;5097625;28;20214;-65
2022/02/18 05:48:14;;;;;;;4.13;1.43;;;8.40;1.00;;;;;;5095181;28;20235;-65
2022/02/18 05:50:39;;;;;;;3.33;1.13;;;8.30;1.00;;;;;;5091832;28;20458;-65
2022/02/18 05:53:05;;;;;;;5.83;1.40;;;;;;;;;;5078696;28;20234;-66
2022/02/18 05:55:31;;;;;;;4.93;1.60;;;8.30;1.00;;;;;;5099872;28;20183;-65
2022/02/18 05:57:56;;;;;;;1.27;1.00;;;8.30;1.00;;;;;;5091371;28;20437;-65
2022/02/18 06:00:22;;;;;;;6.63;1.30;;;8.30;1.00;;;;;;5096871;28;20183;-65
2022/02/18 06:02:47;;;;;;;4.87;1.37;;;8.30;1.00;;;;;;5103516;28;20201;-66
2022/02/18 06:05:13;;;;;;;7.70;1.90;;;8.30;1.00;;;;;;5101751;28;20182;-66
2022/02/18 06:07:42;;;;;;;1.73;1.00;;;8.20;1.00;;;;;;5099421;28;20179;-66
2022/02/18 06:10:08;;;;;;;5.60;1.63;;;8.10;1.00;;;;;;5075862;28;20183;-66
2022/02/18 06:12:34;;;;;;;2.13;1.50;;;;;;;;;;5102278;28;20507;-66
2022/02/18 06:14:59;;;;;;;3.20;1.30;;;8.10;1.00;;;;;;5109253;28;20183;-66
2022/02/18 06:17:25;;;;;;;6.07;1.90;;;;;;;;;;5098677;28;20489;-64
2022/02/18 06:19:51;;;;;;;3.50;1.37;;;7.90;1.00;;;;;;5093617;28;20243;-66
2022/02/18 06:22:17;;;;;;;4.97;1.43;;;7.90;1.00;;;;;;5096705;28;20445;-66
2022/02/18 06:24:43;;;;;;;7.00;1.60;;;7.90;1.00;;;;;;5092428;28;20197;-65
2022/02/18 06:27:09;;;;;;;2.30;1.00;;;7.90;1.00;;;;;;5102497;28;20440;-65
2022/02/18 06:29:35;;;;;;;8.03;1.53;;;;;;;;;;5096110;28;20234;-64
2022/02/18 06:32:02;;;;;;;4.47;1.37;;;7.00;1.00;;;;;;5104189;28;20217;-65
2022/02/18 06:34:28;;;;;;;5.20;1.50;;;7.90;1.00;;;;;;5095561;28;20468;-66
2022/02/18 06:36:54;;;;;;;2.37;1.43;;;8.00;1.00;;;;;;5098070;28;20862;-66
2022/02/18 06:39:21;;;;;;;6.20;1.50;;;8.10;1.00;;;;;;5083931;28;20525;-65
2022/02/18 06:41:48;;;;;;;7.67;1.33;;;8.20;1.00;;;;;;5099458;28;20418;-66
2022/02/18 06:44:14;;;;;;;4.83;2.10;;;8.10;1.00;;;;;;5107448;28;20447;-67
2022/02/18 06:46:40;;;;;;;3.60;1.13;;;8.10;1.00;;;;;;5093476;28;20472;-66
2022/02/18 06:49:05;;;;;;;7.40;1.57;;;8.20;1.00;;;;;;5095331;28;20450;-64
2022/02/18 06:51:31;;;;;;;4.73;1.53;;;8.30;1.00;;;;;;5106234;28;20217;-66
2022/02/18 06:53:57;;;;;;;1.60;0.93;;;8.30;1.00;;;;;;5105136;28;20227;-66
2022/02/18 06:56:23;;;;;;;4.60;1.83;;;;;;;;;;5094850;28;20243;-65
2022/02/18 06:58:48;;;;;;;3.43;1.50;;;8.30;1.00;;;;;;5091019;28;20189;-65
2022/02/18 07:01:14;;;;;;;7.77;1.73;;;8.40;1.00;;;;;;5109224;28;20415;-65
2022/02/18 07:03:39;;;;;;;7.07;1.63;;;8.50;1.00;;;;;;5099610;28;20194;-66
2022/02/18 07:06:05;;;;;;;5.50;1.60;;;;;;;;;;5103763;28;21047;-66
2022/02/18 07:08:32;;;;;;;3.70;1.53;;;8.60;1.00;;;;;;5101212;28;20212;-66
2022/02/18 07:10:58;;;;;;;4.03;1.53;;;8.60;1.00;;;;;;5082964;28;21024;-66
2022/02/18 07:13:24;;;;;;;9.00;1.80;;;8.70;1.00;;;;;;5100269;28;20527;-66
2022/02/18 07:15:50;;;;;;;4.17;1.33;;;8.80;1.00;;;;;;5094686;28;20816;-66
2022/02/18 07:18:16;;;;;;;4.73;1.60;;;8.90;1.00;;;;;;5105181;28;20506;-65
2022/02/18 07:20:42;;;;;;;8.50;1.70;;;9.00;1.00;;;;;;5099857;28;20413;-65
2022/02/18 07:23:08;;;;;;;7.43;2.23;;;9.10;1.00;;;;;;5106147;28;20448;-66
2022/02/18 07:25:34;;;;;;;4.93;1.60;;;9.00;1.00;;;;;;5108783;28;20998;-65
2022/02/18 07:28:00;;;;;;;7.40;3.03;;;9.10;1.00;;;;;;5105046;28;20486;-68
2022/02/18 07:30:26;;;;;;;3.23;1.63;;;9.10;1.00;;;;;;5112212;28;20470;-66
2022/02/18 07:32:52;;;;;;;4.70;1.77;;;9.00;1.00;;;;;;5106269;28;20182;-66
2022/02/18 07:35:18;;;;;;;7.23;2.20;;;9.00;1.00;;;;;;5106013;28;20181;-65
2022/02/18 07:37:44;;;;;;;8.97;1.70;;;9.00;1.00;;;;;;5106805;28;20912;-65
2022/02/18 07:40:12;;;;;;;2.97;1.50;;;9.00;1.00;;;;;;5093090;28;20182;-66
2022/02/18 07:42:38;;;;;;;10.00;2.20;;;;;;;;;;5106967;28;20444;-65
2022/02/18 07:45:04;;;;;;;4.80;1.77;;;9.20;1.00;;;;;;5113220;28;22145;-66
2022/02/18 07:47:30;;;;;;;9.13;1.87;;;9.20;1.00;;;;;;5113594;28;20425;-66
2022/02/18 07:49:55;;;;;;;6.03;2.13;;;9.30;1.00;;;;;;5113170;28;20390;-66
2022/02/18 07:52:21;;;;;;;3.33;1.80;;;9.40;1.00;;;;;;5104579;28;20355;-67
2022/02/18 07:54:47;;;;;;;6.37;1.60;;;9.40;1.00;;;;;;5108830;28;20192;-66
2022/02/18 07:57:12;;;;;;;6.80;1.30;;;9.60;1.00;;;;;;5105394;28;20652;-65
2022/02/18 07:59:38;;;;;;;6.73;1.63;;;9.60;1.00;;;;;;5113211;28;20185;-66
2022/02/18 08:02:04;;;;;;;4.17;1.50;;;9.60;1.00;;;;;;5112642;28;20414;-65
2022/02/18 08:04:29;;;;;;;3.40;1.90;;;9.70;1.00;;;;;;5113073;28;20186;-66
2022/02/18 08:06:55;;;;;;;3.67;1.70;;;9.70;1.00;;;;;;5102646;28;20186;-66
2022/02/18 08:09:20;;;;;;;9.63;2.13;;;9.80;1.00;;;;;;5092484;28;20279;-67
2022/02/18 08:11:46;;;;;;;5.93;1.87;;;9.80;1.00;;;;;;5074288;28;20210;-66
2022/02/18 08:14:12;;;;;;;5.40;1.83;;;;;;;;;;5092120;28;20175;-65
2022/02/18 08:16:37;;;;;;;5.93;2.30;;;10.10;1.00;;;;;;5092337;28;20182;-66
2022/02/18 08:19:03;;;;;;;4.70;2.10;;;10.10;1.00;;;;;;5073959;28;20414;-67
2022/02/18 08:21:29;;;;;;;5.97;1.60;;;10.20;1.00;;;;;;5093400;28;20179;-66
2022/02/18 08:23:54;;;;;;;4.10;2.10;;;10.20;1.00;;;;;;5092151;28;20947;-66
2022/02/18 08:26:21;;;;;;;7.90;1.87;;;10.20;1.00;;;;;;5092302;28;20600;-66
2022/02/18 08:28:48;;;;;;;5.80;1.73;;;10.40;1.00;;;;;;5093835;28;20182;-66
2022/02/18 08:31:13;;;;;;;5.70;1.87;;;10.60;1.00;;;;;;5103570;28;20963;-66
2022/02/18 08:33:39;;;;;;;5.40;1.53;;;10.90;1.00;;;;;;5091868;28;20454;-66
2022/02/18 08:36:07;;;;;;;7.57;2.00;;;11.00;1.00;;;;;;5091962;28;20178;-67
2022/02/18 08:38:34;;;;;;;5.63;1.90;;;11.10;1.00;;;;;;5108515;28;20186;-65
2022/02/18 08:40:59;;;;;;;4.13;2.27;;;11.10;1.00;;;;;;5112323;28;20514;-66
2022/02/18 08:43:25;;;;;;;6.23;1.63;;;11.10;1.00;;;;;;5111990;28;20501;-66
2022/02/18 08:45:51;;;;;;;7.20;1.70;;;;;;;;;;5101926;28;20231;-66
2022/02/18 08:48:16;;;;;;;10.17;1.93;;;11.20;1.00;;;;;;5091419;28;20191;-66
2022/02/18 08:50:42;;;;;;;9.30;2.30;;;11.20;1.00;;;;;;5091855;28;20443;-66
2022/02/18 08:53:07;;;;;;;3.93;1.47;;;11.20;1.00;;;;;;5101046;28;20222;-66
2022/02/18 08:55:33;;;;;;;5.20;2.17;;;11.20;1.00;;;;;;5111382;28;20174;-67
2022/02/18 08:58:00;;;;;;;12.00;2.33;;;11.40;1.00;;;;;;5112178;28;20188;-65
2022/02/18 09:00:25;;;;;;;1.90;1.30;;;11.50;1.00;;;;;;5111525;28;20651;-66
2022/02/18 09:02:51;;;;;;;5.57;2.70;;;11.70;1.00;;;;;;5111920;28;20443;-66
2022/02/18 09:05:17;;;;;;;7.67;2.13;;;11.90;1.00;;;;;;5105226;28;20174;-66
2022/02/18 09:07:44;;;;;;;5.37;1.57;;;11.70;1.00;;;;;;5091215;28;20274;-66
2022/02/18 09:10:12;;;;;;;5.00;2.00;;;11.60;1.00;;;;;;5091303;28;20205;-66
2022/02/18 09:12:39;;;;;;;5.33;1.80;;;11.60;1.00;;;;;;5091178;28;20764;-67
2022/02/18 09:15:06;;;;;;;4.87;1.70;;;11.60;1.00;;;;;;5091431;28;20912;-66
2022/02/18 09:17:32;;;;;;;1.47;1.37;;;11.60;1.00;;;;;;5091024;28;20437;-66
2022/02/18 09:19:58;;;;;;;3.80;1.40;;;;;;;;;;5091175;28;20421;-66
2022/02/18 09:22:25;;;;;;;6.00;2.00;;;11.80;1.00;;;;;;5082746;28;20480;-67
2022/02/18 09:24:52;;;;;;;19.40;10.50;;;11.90;1.00;;;;;;5106481;28;20911;-66
2022/02/18 09:27:18;;;;;;;8.50;3.00;;;12.00;1.00;;;;;;5111348;28;20436;-66
2022/02/18 09:29:43;;;;;;;6.57;3.13;;;12.10;1.00;;;;;;5111083;28;20443;-66
2022/02/18 09:32:09;;;;;;;7.43;3.10;;;12.00;1.00;;;;;;5110955;28;20550;-65
2022/02/18 09:34:36;;;;;;;7.20;2.60;;;12.00;1.00;;;;;;5110905;28;20212;-66
2022/02/18 09:37:03;;;;;;;8.20;3.17;;;12.10;1.00;;;;;;5111190;28;20452;-66
2022/02/18 09:39:29;;;;;;;9.83;2.10;;;12.10;1.00;;;;;;5111142;28;20464;-66
2022/02/18 09:41:55;;;;;;;5.50;2.20;;;12.10;1.00;;;;;;5083804;28;20924;-66
2022/02/18 09:44:22;;;;;;;6.40;2.30;;;;;;;;;;5090820;28;20171;-67
2022/02/18 09:46:49;;;;;;;6.63;2.73;;;12.00;1.00;;;;;;5100153;28;20704;-66
2022/02/18 09:49:15;;;;;;;7.40;1.93;;;12.00;1.00;;;;;;5107542;28;20782;-66
2022/02/18 09:51:40;;;;;;;5.57;2.20;;;12.00;1.00;;;;;;5094925;28;20467;-66
2022/02/18 09:54:07;;;;;;;7.07;1.90;;;12.00;1.00;;;;;;5110582;28;21589;-66
2022/02/18 09:56:33;;;;;;;12.30;1.80;;;12.20;1.00;;;;;;5110847;28;20855;-66
2022/02/18 09:59:11;;;;;;;6.13;1.80;;;12.10;1.00;;;;;;5110394;28;20414;-66
2022/02/18 10:01:36;;;;;;;8.00;2.00;;;12.00;1.00;;;;;;5109782;28;20443;-68
2022/02/18 10:04:03;;;;;;;5.83;2.00;;;12.10;1.00;;;;;;5091192;28;20906;-68
2022/02/18 10:06:29;;;;;;;6.87;2.53;;;;;;;;;;5090732;28;20652;-67
2022/02/18 10:08:58;;;;;;;5.13;1.70;;;12.20;1.00;;;;;;5090314;28;20447;-66
2022/02/18 10:11:24;;;;;;;5.73;1.90;;;12.10;1.00;;;;;;5091142;28;20847;-66
2022/02/18 10:13:51;;;;;;;9.67;2.50;;;12.10;1.00;;;;;;5110555;28;20454;-67
2022/02/18 10:16:20;;;;;;;6.20;2.37;;;12.10;1.00;;;;;;5110701;28;20179;-67
2022/02/18 10:19:13;;;;;;;11.67;2.40;;;12.10;1.00;;;;;;5092699;28;20847;-66
2022/02/18 10:21:44;;;;;;;7.67;2.10;;;12.10;1.00;;;;;;5099051;28;20457;-67
2022/02/18 10:24:18;;;;;;;11.40;2.50;;;12.20;1.00;;;;;;5092894;28;20905;-67
2022/02/18 10:26:45;;;;;;;4.87;1.40;;;12.40;1.00;;;;;;5090336;28;20415;-66
2022/02/18 10:29:18;;;;;;;11.60;2.30;;;12.40;1.00;;;;;;5095891;28;20488;-67
2022/02/18 10:31:43;;;;;;;7.40;1.67;;;12.40;1.00;;;;;;5092746;28;20483;-67
2022/02/18 10:34:10;;;;;;;7.20;2.03;;;12.40;1.00;;;;;;5100643;28;20437;-67
2022/02/18 10:36:44;;;;;;;5.37;2.00;;;12.30;1.00;;;;;;5110390;28;20635;-68
2022/02/18 10:39:28;;;;;;;5.07;1.80;;;12.50;1.00;;;;;;5095346;28;20773;-66
2022/02/18 10:41:59;;;;;;;4.83;2.20;;;12.60;1.00;;;;;;5072186;28;20490;-67
2022/02/18 10:44:29;;;;;;;9.77;2.00;;;12.60;1.00;;;;;;5080869;28;20858;-67
2022/02/18 10:46:55;;;;;;;4.00;1.70;;;;;;;;;;5090032;28;20490;-66
2022/02/18 10:49:26;;;;;;;10.67;2.20;;;12.60;1.00;;;;;;5089843;28;20429;-67
2022/02/18 10:51:52;;;;;;;9.80;5.20;;;12.50;1.00;;;;;;5109102;28;20495;-66
2022/02/18 10:54:28;;;;;;;13.27;3.03;;;12.30;1.00;;;;;;5094785;28;20446;-66
2022/02/18 10:57:13;;;;;;;6.20;1.73;;;12.40;1.00;;;;;;5093998;28;20476;-67
2022/02/18 10:59:40;;;;;;;10.07;2.87;;;12.30;1.00;;;;;;5094028;28;20737;-67
2022/02/18 11:02:05;;;;;;;5.63;2.13;;;12.40;1.00;;;;;;5114365;28;20418;-66
2022/02/18 11:04:31;;;;;;;8.23;2.27;;;12.40;1.00;;;;;;5096105;28;20418;-66
2022/02/18 11:07:14;;;;;;;5.17;2.40;;;12.40;1.00;;;;;;5093974;28;20182;-66
2022/02/18 11:09:41;;;;;;;6.67;2.43;;;12.50;1.00;;;;;;5093491;28;20181;-66
2022/02/18 11:12:12;;;;;;;5.13;2.10;;;12.60;1.00;;;;;;5113949;28;20459;-67
2022/02/18 11:14:41;;;;;;;7.77;2.30;;;12.70;1.00;;;;;;5101915;28;20443;-66
2022/02/18 11:17:07;;;;;;;8.27;2.10;;;12.60;1.00;;;;;;5082557;28;20503;-66
2022/02/18 11:19:32;;;;;;;7.23;2.00;;;12.60;1.00;;;;;;5099053;28;20515;-66
2022/02/18 11:21:59;;;;;;;5.57;2.30;;;12.70;1.00;;;;;;5093657;28;20464;-67
2022/02/18 11:24:25;;;;;;;7.47;2.43;;;12.70;1.00;;;;;;5093334;28;20592;-66
2022/02/18 11:26:51;;;;;;;6.57;1.80;;;12.70;1.00;;;;;;5094157;28;20465;-66
2022/02/18 11:29:19;;;;;;;7.87;1.70;;;12.60;1.00;;;;;;5077430;28;20462;-66
2022/02/18 11:31:52;;;;;;;6.90;2.33;;;12.70;1.00;;;;;;5092856;28;20460;-66
2022/02/18 11:34:26;;;;;;;5.87;2.00;;;12.70;1.00;;;;;;5093074;28;20444;-66
2022/02/18 11:37:23;;;;;;;5.93;2.20;;;12.70;1.00;;;;;;5109759;28;20402;-65
2022/02/18 11:40:22;;;;;;;5.90;2.03;;;12.70;1.00;;;;;;5113082;28;20443;-66
2022/02/18 11:43:21;;;;;;;8.57;3.20;;;12.50;1.00;;;;;;5112724;28;20452;-66
2022/02/18 11:45:55;;;;;;;7.37;3.03;;;12.40;1.00;;;;;;5112579;28;20463;-66
2022/02/18 11:48:41;;;;;;;7.67;3.60;;;12.40;1.00;;;;;;5113067;28;20456;-66
2022/02/18 11:51:09;;;;;;;9.87;3.40;;;12.30;1.00;;;;;;5099910;28;20438;-67
2022/02/18 11:53:43;;;;;;;8.30;3.67;;;12.20;1.00;;;;;;5113273;28;20947;-66
2022/02/18 11:56:09;;;;;;;6.53;3.67;;;12.00;1.00;;;;;;5094270;28;20508;-66
2022/02/18 11:59:04;;;;;;;10.77;4.63;;;11.80;1.00;;;;;;5113593;28;20512;-66
2022/02/18 12:02:03;;;;;;;7.20;4.00;;;11.80;1.00;;;;;;5113178;28;20760;-66
2022/02/18 12:04:30;;;;;;;10.00;4.50;;;11.90;1.00;;;;;;5107154;28;20480;-66
2022/02/18 12:07:20;;;;;;;5.10;2.70;;;11.80;1.00;;;;;;5113103;28;20443;-65
2022/02/18 12:09:48;;;;;;;10.90;4.17;;;11.70;1.00;;;;;;5113213;28;20448;-66
2022/02/18 12:12:23;;;;;;;9.53;3.53;;;11.60;1.00;;;;;;5113178;28;20470;-66
2022/02/18 12:14:50;;;;;;;8.10;3.17;;;11.50;1.00;;;;;;5113025;28;20746;-66
2022/02/18 12:17:19;;;;;;;10.17;2.50;;;11.00;1.00;;;;;;5098635;28;20440;-66
2022/02/18 12:19:44;;;;;;;7.27;2.73;;;11.20;1.00;;;;;;5092942;28;20436;-66
2022/02/18 12:22:10;;;;;;;10.07;3.47;;;11.10;1.00;;;;;;5096240;28;20850;-66
2022/02/18 12:24:43;;;;;;;7.87;2.63;;;11.10;1.00;;;;;;5092607;28;20661;-65
2022/02/18 12:27:23;;;;;;;6.67;2.97;;;11.10;1.00;;;;;;5091972;28;20520;-65
2022/02/18 12:29:56;;;;;;;9.23;2.43;;;11.00;1.00;;;;;;5108943;28;20746;-66
2022/02/18 12:32:22;;;;;;;7.77;3.47;;;11.00;1.00;;;;;;5109271;28;20467;-66
2022/02/18 12:35:03;;;;;;;9.00;3.10;;;10.90;1.00;;;;;;5112853;28;20435;-66
2022/02/18 12:37:29;;;;;;;9.70;2.70;;;10.90;1.00;;;;;;5112703;28;20438;-66
2022/02/18 12:39:57;;;;;;;8.97;3.73;;;10.80;1.00;;;;;;5112789;28;20436;-66
2022/02/18 12:42:25;;;;;;;6.87;2.80;;;10.80;1.00;;;;;;5112809;28;20435;-66
2022/02/18 12:44:51;;;;;;;7.30;2.87;;;10.80;1.00;;;;;;5112333;28;20428;-66
2022/02/18 12:47:25;;;;;;;6.57;2.50;;;10.70;1.00;;;;;;5097869;28;21007;-66
2022/02/18 12:49:54;;;;;;;8.53;3.67;;;10.60;1.00;;;;;;5111508;28;20978;-66
2022/02/18 12:52:20;;;;;;;6.10;4.60;;;10.50;1.00;;;;;;5092661;28;20470;-66
2022/02/18 12:54:51;;;;;;;8.67;5.70;;;10.30;1.00;;;;;;5111830;28;20475;-67
2022/02/18 12:57:28;;;;;;;10.90;6.40;;;10.50;1.00;;;;;;5108984;28;20448;-66
2022/02/18 12:59:54;;;;;;;13.00;6.80;;;10.50;1.00;;;;;;5111580;28;20486;-66
2022/02/18 13:02:43;;;;;;;11.70;6.20;;;10.40;1.00;;;;;;5111691;28;20439;-66
2022/02/18 13:05:12;;;;;;;7.90;6.97;;;10.30;1.00;;;;;;5100982;28;20410;-66
2022/02/18 13:07:40;;;;;;;13.00;5.63;;;10.30;1.00;;;;;;5094907;28;20419;-66
2022/02/18 13:10:09;;;;;;;10.53;5.87;;;10.40;1.00;;;;;;5091363;28;20433;-66
2022/02/18 13:12:42;;;;;;;12.00;6.00;;;10.30;1.00;;;;;;5092201;28;20474;-66
2022/02/18 13:15:10;;;;;;;11.67;5.40;;;10.30;1.00;;;;;;5090817;28;20508;-66